createdAt,value
2023-05-05T00:00:40.298Z,10.40
2023-05-05T00:06:02.051Z,10.25
2023-05-05T00:11:23.687Z,10.08
2023-05-05T00:16:45.345Z,9.92
2023-05-05T00:22:07.422Z,9.82
2023-05-05T00:27:29.068Z,9.75
2023-05-05T00:32:51.248Z,9.71
2023-05-05T00:38:15.091Z,9.63
2023-05-05T00:43:36.899Z,9.56
2023-05-05T00:48:59.919Z,9.47
2023-05-05T00:54:25.178Z,9.42
2023-05-05T00:59:50.130Z,9.30
2023-05-05T01:05:13.846Z,9.16
2023-05-05T01:10:43.442Z,9.07
2023-05-05T01:16:25.850Z,9.02
2023-05-05T01:21:50.532Z,8.97
2023-05-05T01:27:28.737Z,8.93
2023-05-05T01:32:59.445Z,8.84
2023-05-05T01:38:41.883Z,8.77
2023-05-05T01:44:05.794Z,8.71
2023-05-05T01:49:29.364Z,8.68
2023-05-05T01:54:56.478Z,8.68
2023-05-05T02:00:19.528Z,8.68
2023-05-05T02:05:42.020Z,8.74
2023-05-05T02:11:05.431Z,8.67
2023-05-05T02:16:28.145Z,8.59
2023-05-05T02:21:50.362Z,8.55
2023-05-05T02:27:12.239Z,8.60
2023-05-05T02:32:37.931Z,8.72
2023-05-05T02:38:04.893Z,8.79
2023-05-05T02:43:31.765Z,8.68
2023-05-05T02:48:54.111Z,8.57
2023-05-05T02:54:15.984Z,8.54
2023-05-05T02:59:51.339Z,8.53
2023-05-05T03:05:24.228Z,8.46
2023-05-05T03:11:04.605Z,8.41
2023-05-05T03:16:29.735Z,8.40
2023-05-05T03:21:52.616Z,8.33
2023-05-05T03:27:14.566Z,8.28
2023-05-05T03:32:37.708Z,8.22
2023-05-05T03:38:00.252Z,8.23
2023-05-05T03:43:23.311Z,8.24
2023-05-05T03:48:45.104Z,8.29
2023-05-05T03:54:07.191Z,8.38
2023-05-05T03:59:29.824Z,8.46
2023-05-05T04:04:51.677Z,8.57
2023-05-05T04:10:13.602Z,8.66
2023-05-05T04:15:35.501Z,8.73
2023-05-05T04:20:57.332Z,8.87
2023-05-05T04:26:19.697Z,9.02
2023-05-05T04:31:43.425Z,9.19
2023-05-05T04:37:05.827Z,9.33
2023-05-05T04:42:27.555Z,9.45
2023-05-05T04:47:52.953Z,9.57
2023-05-05T04:53:14.948Z,9.85
2023-05-05T04:58:39.004Z,10.18
2023-05-05T05:04:01.532Z,10.32
2023-05-05T05:15:01.652Z,10.65
2023-05-05T05:20:25.003Z,10.91
2023-05-05T05:25:47.235Z,11.18
2023-05-05T05:31:11.837Z,11.45
2023-05-05T05:36:34.298Z,11.63
2023-05-05T05:41:56.111Z,11.85
2023-05-05T05:47:18.439Z,12.11
2023-05-05T05:52:40.665Z,12.29
2023-05-05T05:58:02.791Z,12.31
2023-05-05T06:03:25.526Z,12.38
2023-05-05T06:08:47.610Z,12.57
2023-05-05T06:14:09.471Z,12.73
2023-05-05T06:19:35.306Z,12.90
2023-05-05T06:24:57.109Z,13.07
2023-05-05T06:30:19.698Z,13.18
2023-05-05T06:35:42.466Z,13.38
2023-05-05T06:41:04.658Z,13.57
2023-05-05T06:46:27.090Z,13.68
2023-05-05T06:51:50.061Z,13.94
2023-05-05T06:57:13.139Z,14.18
2023-05-05T07:02:35.038Z,14.35
2023-05-05T07:07:57.500Z,14.63
2023-05-05T07:13:19.381Z,14.97
2023-05-05T07:18:41.304Z,15.22
2023-05-05T07:24:03.623Z,15.32
2023-05-05T07:29:25.349Z,15.48
2023-05-05T07:34:47.059Z,15.65
2023-05-05T07:40:09.504Z,15.81
2023-05-05T07:45:31.592Z,15.93
2023-05-05T07:50:53.106Z,16.09
2023-05-05T07:56:14.991Z,16.35
2023-05-05T08:01:39.096Z,16.48
2023-05-05T08:07:03.192Z,16.64
2023-05-05T08:12:24.935Z,16.68
2023-05-05T08:17:49.370Z,16.96
2023-05-05T08:23:13.562Z,17.18
2023-05-05T08:28:36.998Z,17.26
2023-05-05T08:34:00.898Z,17.36
2023-05-05T08:39:23.068Z,17.47
2023-05-05T08:44:44.796Z,17.64
2023-05-05T08:50:07.985Z,17.83
2023-05-05T08:55:34.288Z,18.05
2023-05-05T09:00:56.967Z,18.03
2023-05-05T09:06:21.318Z,18.10
2023-05-05T09:11:43.984Z,18.34
2023-05-05T09:17:06.248Z,18.53
2023-05-05T09:22:33.246Z,18.66
2023-05-05T09:27:55.084Z,18.73
2023-05-05T09:33:31.651Z,18.68
2023-05-05T09:39:04.526Z,18.72
2023-05-05T09:44:40.189Z,18.88
2023-05-05T09:50:02.439Z,19.04
2023-05-05T09:55:24.999Z,19.11
2023-05-05T10:00:46.889Z,19.33
2023-05-05T10:06:08.822Z,19.37
2023-05-05T10:11:30.715Z,19.64
2023-05-05T10:16:54.372Z,19.71
2023-05-05T10:22:17.417Z,19.86
2023-05-05T10:27:46.881Z,19.89
2023-05-05T10:38:45.588Z,19.89
2023-05-05T10:44:10.736Z,20.06
2023-05-05T10:50:12.000Z,20.29
2023-05-05T10:56:10.948Z,20.36
2023-05-05T11:01:34.647Z,20.42
2023-05-05T11:07:12.472Z,20.49
2023-05-05T11:12:59.438Z,20.49
2023-05-05T11:18:36.034Z,20.56
2023-05-05T11:24:30.094Z,20.53
2023-05-05T11:30:03.789Z,20.82
2023-05-05T11:36:09.080Z,20.78
2023-05-05T11:41:30.898Z,20.65
2023-05-05T11:46:52.642Z,20.74
2023-05-05T11:52:15.175Z,20.90
2023-05-05T11:57:40.025Z,21.15
2023-05-05T12:03:01.964Z,21.30
2023-05-05T12:08:24.454Z,21.41
2023-05-05T12:13:48.186Z,21.26
2023-05-05T12:19:11.924Z,21.31
2023-05-05T12:24:33.615Z,21.16
2023-05-05T12:29:56.908Z,21.24
2023-05-05T12:35:20.057Z,21.50
2023-05-05T12:40:47.108Z,21.67
2023-05-05T12:46:12.039Z,21.54
2023-05-05T12:51:37.678Z,21.52
2023-05-05T12:57:11.124Z,21.63
2023-05-05T13:02:35.977Z,21.48
2023-05-05T13:07:58.498Z,21.36
2023-05-05T13:13:19.885Z,21.37
2023-05-05T13:18:45.377Z,21.29
2023-05-05T13:24:20.791Z,21.31
2023-05-05T13:29:45.124Z,21.33
2023-05-05T13:35:07.518Z,21.22
2023-05-05T13:40:29.642Z,21.11
2023-05-05T13:45:51.471Z,21.03
2023-05-05T13:51:13.311Z,21.07
2023-05-05T13:56:35.297Z,21.11
2023-05-05T14:01:57.259Z,21.19
2023-05-05T14:07:19.092Z,21.31
2023-05-05T14:12:41.241Z,21.27
2023-05-05T14:18:03.297Z,21.26
2023-05-05T14:23:25.180Z,21.28
2023-05-05T14:28:53.353Z,21.41
2023-05-05T14:34:15.266Z,21.43
2023-05-05T14:39:36.883Z,21.32
2023-05-05T14:44:58.508Z,21.13
2023-05-05T14:50:20.742Z,21.04
2023-05-05T14:55:42.554Z,21.03
2023-05-05T15:01:05.317Z,20.94
2023-05-05T15:06:28.238Z,20.90
2023-05-05T15:11:50.042Z,20.87
2023-05-05T15:17:11.798Z,20.95
2023-05-05T15:22:33.338Z,20.92
2023-05-05T15:27:55.255Z,20.85
2023-05-05T15:33:17.381Z,20.76
2023-05-05T15:38:44.654Z,20.66
2023-05-05T15:44:06.650Z,20.47
2023-05-05T15:49:28.154Z,20.31
2023-05-05T15:54:50.010Z,20.20
2023-05-05T16:00:12.645Z,20.00
2023-05-05T16:05:35.683Z,19.75
2023-05-05T16:10:57.504Z,19.64
2023-05-05T16:16:19.579Z,19.56
2023-05-05T16:21:41.361Z,19.58
2023-05-05T16:27:03.897Z,19.63
2023-05-05T16:32:25.640Z,19.56
2023-05-05T16:37:48.060Z,19.35
2023-05-05T16:43:09.789Z,19.28
2023-05-05T16:48:31.410Z,19.14
2023-05-05T16:53:55.853Z,18.94
2023-05-05T16:59:19.341Z,18.74
2023-05-05T17:04:41.409Z,18.54
2023-05-05T17:10:03.043Z,18.45
2023-05-05T17:15:24.661Z,18.38
2023-05-05T17:20:46.535Z,18.23
2023-05-05T17:26:08.470Z,18.15
2023-05-05T17:31:30.684Z,18.03
2023-05-05T17:36:52.386Z,17.84
2023-05-05T17:42:14.434Z,17.66
2023-05-05T17:47:36.756Z,17.46
2023-05-05T17:52:58.645Z,17.26
2023-05-05T17:58:20.711Z,17.11
2023-05-05T18:03:42.896Z,16.96
2023-05-05T18:09:05.081Z,16.83
2023-05-05T18:14:26.603Z,16.68
2023-05-05T18:19:49.366Z,16.54
2023-05-05T18:25:14.232Z,16.43
2023-05-05T18:36:12.065Z,16.17
2023-05-05T18:41:33.602Z,16.09
2023-05-05T18:46:57.290Z,16.01
2023-05-05T18:52:19.270Z,15.92
2023-05-05T18:57:40.989Z,15.84
2023-05-05T19:03:02.806Z,15.77
2023-05-05T19:08:24.948Z,15.67
2023-05-05T19:13:46.980Z,15.62
2023-05-05T19:19:10.960Z,15.56
2023-05-05T19:24:35.849Z,15.48
2023-05-05T19:29:57.551Z,15.42
2023-05-05T19:35:19.597Z,15.36
2023-05-05T19:40:41.905Z,15.29
2023-05-05T19:46:03.628Z,15.20
2023-05-05T19:51:26.242Z,15.10
2023-05-05T19:56:48.037Z,15.02
2023-05-05T20:02:11.701Z,14.95
2023-05-05T20:07:33.691Z,14.87
2023-05-05T20:12:55.199Z,14.77
2023-05-05T20:18:16.949Z,14.68
2023-05-05T20:23:38.978Z,14.60
2023-05-05T20:29:00.811Z,14.56
2023-05-05T20:34:25.281Z,14.52
2023-05-05T20:39:47.496Z,14.49
2023-05-05T20:45:10.788Z,14.43
2023-05-05T20:50:32.977Z,14.34
2023-05-05T20:55:54.576Z,14.25
2023-05-05T21:01:17.139Z,14.18
2023-05-05T21:06:41.436Z,14.12
2023-05-05T21:12:03.968Z,14.03
2023-05-05T21:17:26.036Z,13.92
2023-05-05T21:22:47.928Z,13.83
2023-05-05T21:28:09.469Z,13.70
2023-05-05T21:33:34.142Z,13.60
2023-05-05T21:38:57.758Z,13.50
2023-05-05T21:44:20.776Z,13.43
2023-05-05T21:49:43.577Z,13.37
2023-05-05T21:55:06.152Z,13.29
2023-05-05T22:00:27.996Z,13.22
2023-05-05T22:05:51.064Z,13.14
2023-05-05T22:11:13.434Z,13.06
2023-05-05T22:16:35.217Z,13.01
2023-05-05T22:21:59.722Z,12.95
2023-05-05T22:27:21.424Z,12.90
2023-05-05T22:32:43.553Z,12.82
2023-05-05T22:38:06.154Z,12.72
2023-05-05T22:43:27.885Z,12.66
2023-05-05T22:48:49.327Z,12.59
2023-05-05T22:54:13.660Z,12.49
2023-05-05T22:59:40.917Z,12.39
2023-05-05T23:05:03.062Z,12.30
2023-05-05T23:10:25.020Z,12.22
2023-05-05T23:15:47.114Z,12.17
2023-05-05T23:21:09.669Z,12.10
2023-05-05T23:26:31.468Z,12.03
2023-05-05T23:31:53.516Z,11.97
2023-05-05T23:37:16.092Z,11.94
2023-05-05T23:42:38.857Z,11.90
2023-05-05T23:48:01.186Z,11.82
2023-05-05T23:53:22.999Z,11.77
2023-05-05T23:58:45.041Z,11.70
